createdAt,value
2018-09-28T00:01:23.692Z,20.82
2018-09-28T00:03:52.447Z,22.10
2018-09-28T00:06:21.307Z,22.65
2018-09-28T00:08:48.983Z,24.57
2018-09-28T00:11:17.710Z,23.50
2018-09-28T00:13:46.276Z,22.60
2018-09-28T00:16:14.248Z,25.72
2018-09-28T00:18:42.430Z,24.70
2018-09-28T00:21:10.044Z,24.50
2018-09-28T00:23:42.416Z,22.35
2018-09-28T00:26:14.459Z,23.92
2018-09-28T00:28:42.825Z,23.18
2018-09-28T00:31:12.595Z,24.32
2018-09-28T00:33:40.197Z,24.25
2018-09-28T00:36:07.850Z,24.15
2018-09-28T00:38:36.062Z,27.30
2018-09-28T00:41:03.683Z,25.02
2018-09-28T00:43:31.236Z,25.68
2018-09-28T00:45:59.525Z,23.70
2018-09-28T00:48:27.177Z,26.10
2018-09-28T00:50:55.811Z,26.10
2018-09-28T00:53:23.854Z,24.40
2018-09-28T00:55:51.451Z,24.18
2018-09-28T00:58:19.620Z,26.68
2018-09-28T01:00:47.289Z,26.45
2018-09-28T01:03:15.600Z,24.35
2018-09-28T01:05:44.055Z,27.35
2018-09-28T01:08:11.782Z,29.23
2018-09-28T01:10:39.803Z,27.52
2018-09-28T01:13:07.412Z,27.87
2018-09-28T01:15:35.037Z,25.62
2018-09-28T01:18:02.625Z,26.05
2018-09-28T01:20:36.014Z,29.60
2018-09-28T01:23:03.602Z,27.67
2018-09-28T01:25:31.879Z,27.32
2018-09-28T01:28:00.295Z,24.95
2018-09-28T01:30:28.063Z,26.48
2018-09-28T01:32:56.317Z,29.95
2018-09-28T01:35:24.029Z,24.67
2018-09-28T01:37:51.650Z,27.02
2018-09-28T01:40:23.378Z,28.12
2018-09-28T01:42:51.955Z,25.52
2018-09-28T01:45:23.713Z,24.87
2018-09-28T01:47:51.313Z,22.90
2018-09-28T01:50:19.619Z,26.95
2018-09-28T01:52:47.364Z,25.52
2018-09-28T01:55:19.015Z,29.95
2018-09-28T01:57:46.579Z,27.65
2018-09-28T02:00:14.229Z,26.00
2018-09-28T02:02:42.564Z,26.52
2018-09-28T02:05:10.191Z,29.20
2018-09-28T02:07:38.061Z,29.20
2018-09-28T02:10:06.135Z,31.97
2018-09-28T02:12:37.778Z,26.12
2018-09-28T02:15:10.181Z,30.45
2018-09-28T02:17:37.792Z,28.05
2018-09-28T02:20:05.501Z,29.75
2018-09-28T02:22:33.547Z,28.07
2018-09-28T02:25:02.334Z,29.23
2018-09-28T02:27:29.979Z,28.25
2018-09-28T02:29:57.658Z,29.37
2018-09-28T02:32:25.329Z,28.15
2018-09-28T02:34:54.262Z,27.75
2018-09-28T02:37:23.503Z,29.60
2018-09-28T02:39:51.116Z,28.57
2018-09-28T02:42:18.811Z,27.20
2018-09-28T02:44:46.405Z,29.07
2018-09-28T02:47:17.091Z,28.38
2018-09-28T02:49:45.167Z,32.33
2018-09-28T02:52:13.184Z,29.85
2018-09-28T02:54:41.141Z,31.42
2018-09-28T02:57:09.085Z,35.92
2018-09-28T02:59:36.960Z,30.15
2018-09-28T03:02:04.572Z,30.48
2018-09-28T03:04:32.150Z,32.98
2018-09-28T03:06:59.743Z,33.98
2018-09-28T03:09:27.330Z,35.68
2018-09-28T03:11:55.191Z,32.20
2018-09-28T03:14:22.936Z,32.63
2018-09-28T03:16:50.680Z,34.50
2018-09-28T03:19:18.333Z,31.35
2018-09-28T03:21:50.879Z,36.55
2018-09-28T03:24:18.503Z,34.05
2018-09-28T03:26:46.322Z,38.63
2018-09-28T03:29:15.414Z,36.58
2018-09-28T03:31:43.065Z,33.83
2018-09-28T03:34:10.861Z,37.75
2018-09-28T03:36:39.087Z,36.03
2018-09-28T03:39:07.012Z,39.10
2018-09-28T03:41:34.615Z,38.40
2018-09-28T03:44:06.669Z,37.98
2018-09-28T03:46:34.631Z,36.50
2018-09-28T03:49:02.692Z,38.33
2018-09-28T03:51:30.936Z,36.73
2018-09-28T03:53:59.550Z,37.98
2018-09-28T03:56:27.357Z,39.65
2018-09-28T03:58:55.964Z,39.23
2018-09-28T04:01:24.157Z,38.85
2018-09-28T04:03:51.771Z,40.85
2018-09-28T04:06:20.304Z,37.88
2018-09-28T04:08:48.689Z,39.00
2018-09-28T04:11:16.323Z,36.90
2018-09-28T04:13:43.969Z,38.02
2018-09-28T04:16:12.196Z,39.55
2018-09-28T04:18:39.820Z,41.98
2018-09-28T04:21:11.674Z,41.33
2018-09-28T04:23:41.635Z,38.15
2018-09-28T04:26:09.747Z,41.00
2018-09-28T04:28:37.329Z,39.42
2018-09-28T04:31:05.090Z,42.33
2018-09-28T04:33:32.691Z,52.67
2018-09-28T04:36:00.291Z,41.63
2018-09-28T04:38:30.148Z,41.53
2018-09-28T04:41:03.239Z,39.13
2018-09-28T04:43:30.834Z,43.48
2018-09-28T04:45:58.497Z,41.35
2018-09-28T04:48:26.381Z,45.38
2018-09-28T04:50:55.047Z,39.98
2018-09-28T04:53:22.666Z,40.70
2018-09-28T04:55:50.275Z,41.28
2018-09-28T04:58:17.883Z,42.98
2018-09-28T05:00:45.465Z,43.23
2018-09-28T05:03:13.034Z,45.83
2018-09-28T05:05:40.660Z,42.10
2018-09-28T05:08:08.230Z,43.38
2018-09-28T05:10:35.891Z,49.03
2018-09-28T05:13:03.769Z,45.63
2018-09-28T05:15:35.491Z,42.30
2018-09-28T05:18:03.019Z,42.90
2018-09-28T05:20:30.646Z,45.90
2018-09-28T05:22:58.236Z,46.73
2018-09-28T05:25:25.884Z,47.20
2018-09-28T05:27:53.534Z,48.13
2018-09-28T05:30:21.148Z,49.38
2018-09-28T05:32:48.828Z,48.13
2018-09-28T05:35:16.230Z,47.60
2018-09-28T05:37:48.164Z,47.93
2018-09-28T05:40:15.992Z,52.73
2018-09-28T05:42:43.733Z,49.35
2018-09-28T05:45:11.330Z,52.20
2018-09-28T05:47:39.803Z,51.48
2018-09-28T05:50:07.775Z,49.00
2018-09-28T05:52:35.270Z,53.15
2018-09-28T05:55:02.804Z,50.67
2018-09-28T05:57:30.333Z,53.48
2018-09-28T06:02:08.140Z,51.37
2018-09-28T06:04:40.968Z,55.33
2018-09-28T06:07:08.806Z,59.38
2018-09-28T06:09:36.357Z,52.60
2018-09-28T06:12:04.319Z,54.77
2018-09-28T06:14:32.634Z,52.65
2018-09-28T06:17:00.615Z,52.93
2018-09-28T06:19:29.918Z,48.85
2018-09-28T06:21:57.464Z,48.98
2018-09-28T06:24:25.612Z,53.78
2018-09-28T06:26:53.161Z,50.98
2018-09-28T06:29:20.760Z,49.83
2018-09-28T06:31:48.287Z,49.42
2018-09-28T06:34:16.236Z,47.30
2018-09-28T06:36:43.817Z,50.48
2018-09-28T06:39:11.701Z,48.63
2018-09-28T06:41:39.267Z,49.35
2018-09-28T06:44:06.800Z,48.30
2018-09-28T06:46:34.862Z,45.35
2018-09-28T06:49:02.451Z,50.45
2018-09-28T06:51:30.284Z,48.50
2018-09-28T06:53:58.015Z,49.50
2018-09-28T06:56:25.643Z,47.03
2018-09-28T06:58:53.202Z,45.15
2018-09-28T07:01:20.845Z,47.05
2018-09-28T07:03:48.320Z,63.30
2018-09-28T07:06:16.872Z,44.10
2018-09-28T07:08:44.452Z,38.40
2018-09-28T07:11:12.125Z,55.75
2018-09-28T07:13:39.608Z,34.13
2018-09-28T07:16:07.342Z,34.95
2018-09-28T07:18:34.897Z,36.95
2018-09-28T07:21:02.456Z,38.80
2018-09-28T07:23:29.923Z,35.70
2018-09-28T07:25:57.648Z,30.60
2018-09-28T07:28:25.209Z,29.55
2018-09-28T07:30:52.713Z,29.70
2018-09-28T07:33:20.305Z,30.35
2018-09-28T07:35:47.821Z,27.58
2018-09-28T07:38:15.601Z,28.00
2018-09-28T07:40:43.103Z,28.32
2018-09-28T07:43:10.649Z,24.82
2018-09-28T07:45:38.249Z,31.15
2018-09-28T07:48:05.984Z,29.12
2018-09-28T07:50:33.484Z,29.25
2018-09-28T07:53:01.435Z,24.47
2018-09-28T07:55:28.936Z,28.35
2018-09-28T07:57:56.473Z,24.52
2018-09-28T08:00:23.972Z,25.35
2018-09-28T08:02:52.602Z,25.10
2018-09-28T08:05:20.273Z,29.15
2018-09-28T08:07:48.846Z,30.20
2018-09-28T08:10:16.363Z,25.25
2018-09-28T08:12:44.740Z,24.20
2018-09-28T08:15:12.335Z,26.60
2018-09-28T08:17:39.932Z,23.87
2018-09-28T08:20:07.840Z,25.57
2018-09-28T08:22:35.367Z,23.45
2018-09-28T08:25:02.923Z,22.25
2018-09-28T08:27:31.321Z,20.43
2018-09-28T08:29:58.900Z,22.52
2018-09-28T08:32:26.396Z,27.40
2018-09-28T08:34:54.099Z,22.45
2018-09-28T08:37:22.061Z,22.40
2018-09-28T08:42:22.916Z,22.48
2018-09-28T08:44:50.523Z,21.12
2018-09-28T08:47:18.094Z,21.40
2018-09-28T08:49:45.692Z,28.85
2018-09-28T08:52:13.221Z,22.95
2018-09-28T08:54:40.776Z,24.52
2018-09-28T08:57:08.868Z,21.80
2018-09-28T08:59:36.411Z,22.27
2018-09-28T09:02:04.102Z,23.87
2018-09-28T09:04:32.483Z,19.90
2018-09-28T09:07:00.078Z,23.70
2018-09-28T09:09:27.677Z,20.52
2018-09-28T09:11:55.393Z,22.20
2018-09-28T09:14:23.694Z,24.47
2018-09-28T09:16:52.235Z,20.20
2018-09-28T09:19:19.815Z,25.72
2018-09-28T09:21:47.364Z,20.12
2018-09-28T09:24:14.924Z,26.07
2018-09-28T09:26:42.454Z,20.30
2018-09-28T09:29:10.011Z,20.72
2018-09-28T09:31:37.569Z,18.73
2018-09-28T09:34:05.094Z,20.37
2018-09-28T09:36:32.615Z,19.10
2018-09-28T09:39:00.152Z,19.87
2018-09-28T09:41:27.952Z,20.82
2018-09-28T09:43:55.451Z,19.57
2018-09-28T09:46:23.742Z,20.92
2018-09-28T09:48:51.389Z,24.63
2018-09-28T09:51:19.054Z,22.82
2018-09-28T09:53:46.629Z,23.92
2018-09-28T09:56:14.245Z,19.92
2018-09-28T09:58:41.904Z,21.27
2018-09-28T10:01:13.638Z,20.08
2018-09-28T10:03:47.929Z,20.32
2018-09-28T10:06:15.448Z,21.57
2018-09-28T10:08:48.148Z,20.95
2018-09-28T10:13:53.943Z,19.25
2018-09-28T10:16:21.580Z,21.52
2018-09-28T10:21:15.652Z,17.75
2018-09-28T10:23:42.990Z,22.50
2018-09-28T10:26:10.286Z,17.67
2018-09-28T10:28:37.653Z,24.65
2018-09-28T10:31:05.006Z,16.60
2018-09-28T10:33:38.169Z,21.00
2018-09-28T10:36:05.492Z,20.17
2018-09-28T10:38:32.846Z,18.85
2018-09-28T10:41:00.289Z,18.90
2018-09-28T10:43:27.971Z,20.68
2018-09-28T10:48:27.012Z,17.52
2018-09-28T10:50:54.461Z,22.67
2018-09-28T10:53:21.741Z,22.10
2018-09-28T10:55:50.084Z,24.35
2018-09-28T10:58:17.474Z,20.82
2018-09-28T11:00:44.931Z,20.77
2018-09-28T11:03:12.409Z,27.62
2018-09-28T11:05:40.798Z,18.67
2018-09-28T11:08:08.115Z,18.27
2018-09-28T11:10:35.574Z,27.82
2018-09-28T11:13:02.941Z,24.45
2018-09-28T11:15:30.254Z,20.32
2018-09-28T11:17:57.840Z,19.90
2018-09-28T11:20:25.284Z,22.90
2018-09-28T11:22:52.736Z,25.52
2018-09-28T11:25:20.231Z,22.48
2018-09-28T11:27:47.695Z,21.02
2018-09-28T11:30:15.068Z,19.12
2018-09-28T11:35:18.959Z,17.95
2018-09-28T11:37:46.315Z,23.90
2018-09-28T11:40:13.595Z,19.67
2018-09-28T11:42:41.449Z,20.88
2018-09-28T11:45:08.811Z,20.27
2018-09-28T11:47:36.539Z,18.15
2018-09-28T11:50:03.977Z,22.17
2018-09-28T11:52:31.462Z,25.27
2018-09-28T11:55:00.660Z,20.37
2018-09-28T11:57:28.092Z,19.62
2018-09-28T11:59:55.452Z,20.00
2018-09-28T12:02:23.427Z,18.52
2018-09-28T12:04:50.906Z,21.25
2018-09-28T12:07:18.244Z,20.27
2018-09-28T12:09:45.749Z,19.48
2018-09-28T12:12:13.084Z,18.87
2018-09-28T12:14:40.556Z,18.98
2018-09-28T12:17:07.890Z,18.85
2018-09-28T12:19:35.347Z,18.50
2018-09-28T12:22:02.763Z,17.12
2018-09-28T12:24:30.325Z,18.98
2018-09-28T12:26:57.636Z,19.30
2018-09-28T12:29:25.049Z,18.07
2018-09-28T12:31:52.390Z,17.30
2018-09-28T12:34:19.766Z,19.67
2018-09-28T12:36:47.780Z,19.32
2018-09-28T12:39:15.178Z,20.30
2018-09-28T12:41:42.967Z,17.65
2018-09-28T12:44:11.259Z,20.68
2018-09-28T12:46:38.632Z,21.00
2018-09-28T12:49:06.193Z,21.33
2018-09-28T12:51:35.820Z,21.30
2018-09-28T12:54:03.229Z,18.77
2018-09-28T12:56:30.656Z,18.02
2018-09-28T12:58:58.117Z,18.05
2018-09-28T13:01:25.487Z,18.75
2018-09-28T13:03:52.942Z,18.48
2018-09-28T13:06:20.417Z,19.60
2018-09-28T13:08:47.872Z,20.45
2018-09-28T13:11:15.828Z,21.30
2018-09-28T13:13:43.418Z,17.80
2018-09-28T13:16:10.847Z,19.02
2018-09-28T13:18:38.218Z,19.77
2018-09-28T13:21:06.412Z,17.95
2018-09-28T13:23:33.775Z,16.70
2018-09-28T13:26:02.979Z,20.30
2018-09-28T13:28:30.346Z,29.70
2018-09-28T13:30:57.714Z,16.20
2018-09-28T13:33:29.389Z,18.40
2018-09-28T13:35:56.776Z,19.23
2018-09-28T13:38:24.822Z,18.60
2018-09-28T13:40:52.802Z,20.10
2018-09-28T13:43:21.393Z,15.38
2018-09-28T13:45:48.948Z,19.60
2018-09-28T13:48:16.412Z,16.27
2018-09-28T13:50:43.838Z,14.83
2018-09-28T13:53:11.179Z,19.85
2018-09-28T13:55:38.498Z,15.93
2018-09-28T13:58:05.863Z,16.70
2018-09-28T14:00:33.656Z,16.65
2018-09-28T14:03:01.039Z,16.00
2018-09-28T14:05:29.174Z,16.23
2018-09-28T14:07:56.604Z,20.37
2018-09-28T14:10:24.567Z,15.20
2018-09-28T14:12:52.015Z,16.00
2018-09-28T14:15:19.356Z,15.95
2018-09-28T14:17:47.580Z,16.97
2018-09-28T14:20:15.017Z,16.55
2018-09-28T14:22:43.113Z,15.03
2018-09-28T14:25:10.375Z,17.10
2018-09-28T14:27:37.830Z,14.80
2018-09-28T14:30:05.394Z,20.57
2018-09-28T14:32:32.684Z,17.07
2018-09-28T14:35:00.016Z,16.90
2018-09-28T14:37:27.393Z,15.95
2018-09-28T14:39:54.771Z,17.15
2018-09-28T14:42:24.038Z,17.57
2018-09-28T14:44:51.779Z,18.52
2018-09-28T14:47:19.026Z,16.42
2018-09-28T14:49:46.359Z,18.45
2018-09-28T14:52:13.716Z,15.00
2018-09-28T14:54:41.129Z,16.00
2018-09-28T14:57:08.439Z,15.35
2018-09-28T14:59:35.758Z,16.17
2018-09-28T15:02:03.136Z,17.48
2018-09-28T15:04:31.087Z,16.57
2018-09-28T15:06:58.627Z,17.90
2018-09-28T15:09:25.911Z,16.97
2018-09-28T15:12:02.459Z,17.00
2018-09-28T15:14:30.201Z,17.73
2018-09-28T15:16:57.595Z,17.48
2018-09-28T15:19:24.941Z,16.67
2018-09-28T15:21:56.770Z,20.05
2018-09-28T15:24:28.551Z,16.77
2018-09-28T15:26:56.189Z,18.15
2018-09-28T15:29:23.600Z,16.35
2018-09-28T15:31:51.087Z,17.57
2018-09-28T15:34:18.740Z,16.87
2018-09-28T15:36:46.618Z,19.37
2018-09-28T15:39:14.558Z,21.35
2018-09-28T15:41:42.208Z,18.17
2018-09-28T15:44:09.934Z,16.55
2018-09-28T15:46:37.901Z,17.30
2018-09-28T15:49:05.352Z,17.37
2018-09-28T15:51:32.737Z,18.82
2018-09-28T15:54:00.357Z,17.55
2018-09-28T15:56:33.255Z,17.42
2018-09-28T15:59:00.635Z,16.75
2018-09-28T16:01:29.067Z,19.35
2018-09-28T16:03:56.534Z,18.98
2018-09-28T16:06:28.153Z,18.25
2018-09-28T16:08:55.679Z,16.00
2018-09-28T16:11:23.067Z,16.73
2018-09-28T16:13:50.480Z,23.18
2018-09-28T16:16:17.846Z,18.87
2018-09-28T16:18:45.220Z,17.42
2018-09-28T16:21:15.179Z,16.75
2018-09-28T16:23:42.515Z,17.92
2018-09-28T16:26:09.856Z,17.40
2018-09-28T16:28:37.375Z,16.57
2018-09-28T16:31:04.830Z,17.65
2018-09-28T16:33:32.678Z,15.15
2018-09-28T16:36:05.338Z,20.20
2018-09-28T16:38:32.673Z,17.23
2018-09-28T16:41:00.328Z,16.23
2018-09-28T16:43:27.774Z,18.02
2018-09-28T16:45:55.491Z,15.50
2018-09-28T16:48:22.958Z,16.70
2018-09-28T16:50:50.344Z,18.85
2018-09-28T16:53:17.790Z,16.00
2018-09-28T16:55:45.105Z,15.80
2018-09-28T16:58:12.415Z,18.42
2018-09-28T17:00:39.827Z,22.40
2018-09-28T17:03:07.733Z,15.53
2018-09-28T17:05:35.149Z,15.63
2018-09-28T17:08:02.759Z,19.57
2018-09-28T17:10:30.273Z,16.17
2018-09-28T17:12:58.453Z,23.12
2018-09-28T17:15:31.522Z,16.57
2018-09-28T17:17:59.032Z,16.95
2018-09-28T17:20:26.555Z,17.50
2018-09-28T17:22:54.103Z,16.82
2018-09-28T17:25:21.462Z,17.32
2018-09-28T17:27:48.864Z,18.35
2018-09-28T17:30:16.383Z,19.57
2018-09-28T17:32:44.326Z,18.50
2018-09-28T17:35:11.830Z,19.42
2018-09-28T17:37:41.245Z,17.37
2018-09-28T17:40:08.651Z,19.60
2018-09-28T17:42:40.193Z,20.48
2018-09-28T17:45:07.699Z,17.27
2018-09-28T17:47:35.097Z,17.50
2018-09-28T17:52:41.175Z,19.05
2018-09-28T17:55:08.578Z,19.37
2018-09-28T17:57:36.367Z,18.65
2018-09-28T18:00:03.878Z,17.10
2018-09-28T18:02:31.306Z,17.57
2018-09-28T18:04:58.726Z,18.57
2018-09-28T18:07:26.170Z,18.10
2018-09-28T18:09:54.051Z,16.27
2018-09-28T18:12:21.426Z,16.48
2018-09-28T18:14:48.776Z,19.12
2018-09-28T18:17:16.728Z,21.20
2018-09-28T18:19:44.986Z,17.12
2018-09-28T18:22:16.861Z,18.23
2018-09-28T18:24:44.411Z,18.85
2018-09-28T18:27:11.927Z,17.35
2018-09-28T18:29:39.273Z,17.77
2018-09-28T18:32:06.673Z,17.50
2018-09-28T18:34:34.082Z,22.75
2018-09-28T18:37:01.422Z,33.58
2018-09-28T18:39:29.046Z,33.80
2018-09-28T18:41:58.779Z,28.73
2018-09-28T18:44:26.139Z,25.57
2018-09-28T18:46:53.720Z,20.40
2018-09-28T18:49:25.277Z,21.70
2018-09-28T18:51:52.772Z,19.77
2018-09-28T18:56:48.321Z,18.05
2018-09-28T18:59:20.020Z,16.12
2018-09-28T19:01:47.928Z,16.40
2018-09-28T19:04:17.393Z,17.62
2018-09-28T19:06:45.791Z,15.75
2018-09-28T19:09:13.455Z,20.52
2018-09-28T19:11:41.569Z,22.98
2018-09-28T19:14:08.935Z,21.80
2018-09-28T19:16:36.697Z,18.73
2018-09-28T19:19:04.229Z,18.65
2018-09-28T19:21:31.761Z,20.85
2018-09-28T19:23:59.198Z,19.85
2018-09-28T19:26:26.623Z,17.35
2018-09-28T19:28:54.856Z,17.90
2018-09-28T19:31:30.785Z,21.23
2018-09-28T19:33:58.657Z,16.20
2018-09-28T19:36:26.236Z,17.15
2018-09-28T19:38:53.723Z,17.17
2018-09-28T19:41:21.104Z,20.70
2018-09-28T19:43:53.395Z,16.30
2018-09-28T19:46:21.754Z,17.77
2018-09-28T19:48:49.230Z,18.85
2018-09-28T19:51:16.875Z,16.52
2018-09-28T19:53:44.269Z,15.45
2018-09-28T19:56:11.732Z,18.70
2018-09-28T19:58:39.959Z,17.25
2018-09-28T20:01:07.440Z,17.40
2018-09-28T20:03:35.491Z,18.55
2018-09-28T20:08:29.870Z,19.15
2018-09-28T20:10:57.375Z,16.17
2018-09-28T20:13:24.838Z,17.10
2018-09-28T20:15:52.742Z,18.02
2018-09-28T20:18:20.407Z,18.60
2018-09-28T20:20:48.477Z,15.93
2018-09-28T20:23:16.790Z,15.50
2018-09-28T20:25:44.792Z,18.07
2018-09-28T20:28:16.170Z,17.73
2018-09-28T20:30:43.796Z,19.80
2018-09-28T20:33:11.781Z,26.00
2018-09-28T20:35:39.666Z,22.45
2018-09-28T20:38:07.266Z,17.82
2018-09-28T20:40:34.863Z,20.27
2018-09-28T20:43:02.433Z,19.67
2018-09-28T20:45:29.841Z,20.10
2018-09-28T20:47:57.261Z,17.10
2018-09-28T20:50:24.615Z,16.15
2018-09-28T20:52:52.367Z,18.23
2018-09-28T20:55:19.795Z,16.77
2018-09-28T20:57:47.135Z,17.73
2018-09-28T21:00:15.544Z,16.95
2018-09-28T21:02:43.135Z,16.93
2018-09-28T21:05:11.451Z,15.25
2018-09-28T21:07:38.907Z,18.75
2018-09-28T21:10:06.316Z,18.40
2018-09-28T21:12:34.309Z,16.95
2018-09-28T21:15:01.744Z,15.50
2018-09-28T21:17:29.230Z,16.48
2018-09-28T21:19:56.657Z,15.05
2018-09-28T21:22:26.292Z,14.33
2018-09-28T21:24:55.467Z,15.98
2018-09-28T21:27:26.593Z,17.57
2018-09-28T21:29:54.063Z,20.17
2018-09-28T21:32:21.655Z,18.17
2018-09-28T21:34:49.289Z,16.57
2018-09-28T21:39:52.384Z,18.52
2018-09-28T21:42:20.686Z,16.75
2018-09-28T21:44:48.159Z,20.27
2018-09-28T21:47:15.625Z,20.15
2018-09-28T21:49:43.184Z,17.02
2018-09-28T21:52:11.299Z,22.42
2018-09-28T21:54:38.670Z,18.82
2018-09-28T21:57:06.215Z,16.12
2018-09-28T21:59:33.610Z,16.20
2018-09-28T22:02:06.609Z,15.93
2018-09-28T22:04:34.063Z,15.40
2018-09-28T22:07:02.739Z,17.17
2018-09-28T22:09:34.226Z,16.17
2018-09-28T22:12:01.983Z,18.25
2018-09-28T22:14:29.929Z,16.15
2018-09-28T22:16:57.397Z,17.30
2018-09-28T22:19:25.017Z,20.12
2018-09-28T22:24:19.749Z,16.27
2018-09-28T22:26:47.857Z,17.55
2018-09-28T22:31:48.430Z,15.63
2018-09-28T22:34:15.879Z,18.25
2018-09-28T22:36:44.244Z,16.30
2018-09-28T22:39:12.476Z,16.00
2018-09-28T22:41:40.183Z,16.77
2018-09-28T22:44:09.128Z,16.12
2018-09-28T22:46:41.786Z,17.00
2018-09-28T22:49:09.182Z,17.52
2018-09-28T22:51:36.718Z,16.32
2018-09-28T22:54:12.058Z,15.60
2018-09-28T22:56:39.590Z,21.62
2018-09-28T22:59:06.990Z,18.90
2018-09-28T23:01:34.928Z,17.10
2018-09-28T23:04:02.561Z,21.85
2018-09-28T23:06:30.012Z,17.87
2018-09-28T23:08:57.519Z,18.40
2018-09-28T23:11:32.475Z,17.23
2018-09-28T23:14:00.115Z,19.98
2018-09-28T23:16:27.502Z,17.52
2018-09-28T23:18:54.909Z,17.12
2018-09-28T23:21:23.084Z,18.82
2018-09-28T23:23:51.226Z,17.40
2018-09-28T23:26:18.607Z,19.73
2018-09-28T23:28:48.060Z,17.75
2018-09-28T23:31:20.233Z,17.90
2018-09-28T23:33:47.774Z,17.37
2018-09-28T23:36:19.724Z,17.70
2018-09-28T23:38:47.359Z,17.95
2018-09-28T23:41:14.701Z,21.30
2018-09-28T23:43:43.877Z,20.32
2018-09-28T23:46:11.328Z,18.25
2018-09-28T23:48:42.914Z,17.70
2018-09-28T23:51:10.327Z,20.43
2018-09-28T23:53:37.762Z,18.00
2018-09-28T23:56:06.281Z,16.50
2018-09-28T23:58:33.830Z,17.25
